Time;durP1;ratioP1;P1;durP2;ratioP2;P2;SDS_P1;SDS_P2;PMS_P1;PMS_P2;Temp;Humidity;BMP_temperature;BMP_pressure;BME280_temperature;BME280_humidity;BME280_pressure;Samples;Min_cycle;Max_cycle;Signal;HPM_P1;HPM_P2
2023/07/14 00:01:18;;;;;;;4.20;2.57;;;;;;;22.82;43.73;97723.13;5018035;28;20611;-69
2023/07/14 00:03:43;;;;;;;4.67;2.57;;;;;;;22.83;43.88;97719.44;5010228;28;20706;-69
2023/07/14 00:06:12;;;;;;;3.60;2.30;;;;;;;22.76;43.82;97721.31;5008876;28;20467;-70
2023/07/14 00:08:39;;;;;;;2.80;2.30;;;;;;;22.67;44.10;97718.94;5006204;28;20215;-68
2023/07/14 00:11:23;;;;;;;4.43;2.27;;;;;;;22.64;44.22;97727.38;5015303;28;20458;-70
2023/07/14 00:13:53;;;;;;;4.30;2.10;;;;;;;22.53;44.77;97718.22;5015614;28;20986;-70
2023/07/14 00:16:25;;;;;;;4.10;2.93;;;;;;;22.57;44.55;97720.44;5013454;28;21000;-70
2023/07/14 00:18:51;;;;;;;4.13;2.77;;;;;;;22.57;44.52;97710.59;5010483;28;20427;-69
2023/07/14 00:21:22;;;;;;;7.20;2.60;;;;;;;22.49;44.47;97719.69;5006557;28;20462;-69
2023/07/14 00:23:49;;;;;;;5.43;2.83;;;;;;;22.49;44.82;97717.03;5007639;28;20419;-70
2023/07/14 00:26:19;;;;;;;7.23;2.50;;;;;;;22.54;44.68;97714.53;5007308;28;20439;-70
2023/07/14 00:28:48;;;;;;;4.30;2.87;;;;;;;22.52;44.38;97711.25;5009574;28;20944;-70
2023/07/14 00:31:15;;;;;;;2.97;2.00;;;;;;;22.52;44.59;97715.75;5016084;28;20502;-70
2023/07/14 00:33:41;;;;;;;2.90;2.13;;;;;;;22.49;44.68;97710.88;5016726;28;20431;-69
2023/07/14 00:36:07;;;;;;;4.83;2.53;;;;;;;22.44;44.97;97708.03;5012823;28;20426;-70
2023/07/14 00:38:34;;;;;;;6.47;2.60;;;;;;;22.44;44.91;97705.34;5011485;28;20420;-70
2023/07/14 00:41:00;;;;;;;3.30;2.70;;;;;;;22.39;44.98;97708.66;5013900;28;20486;-69
2023/07/14 00:43:26;;;;;;;4.00;2.10;;;;;;;22.42;44.85;97705.59;5010722;28;20423;-68
2023/07/14 00:45:54;;;;;;;8.17;2.43;;;;;;;22.39;44.68;97706.78;5001514;28;20432;-69
2023/07/14 00:48:22;;;;;;;5.10;2.10;;;;;;;22.39;44.72;97700.63;5015070;28;20272;-69
2023/07/14 00:51:01;;;;;;;5.47;3.50;;;;;;;22.30;45.36;97705.41;5011857;28;20451;-69
2023/07/14 00:53:37;;;;;;;4.03;2.27;;;;;;;22.33;45.27;97698.81;5018132;28;20430;-69
2023/07/14 00:56:19;;;;;;;3.10;2.40;;;;;;;22.33;45.12;97693.47;5002958;28;21014;-69
2023/07/14 00:58:45;;;;;;;2.60;2.20;;;;;;;22.35;44.99;97694.91;5023465;28;20445;-70
2023/07/14 01:01:13;;;;;;;4.73;2.70;;;;;;;22.31;45.16;97693.72;5008224;28;21013;-69
2023/07/14 01:03:44;;;;;;;4.80;2.33;;;;;;;22.28;45.00;97693.31;5015905;28;20442;-69
2023/07/14 01:06:20;;;;;;;7.40;2.67;;;;;;;22.27;45.34;97705.84;5013539;28;20518;-69
2023/07/14 01:08:59;;;;;;;5.77;2.50;;;;;;;22.16;45.29;97691.34;5009798;28;20800;-69
2023/07/14 01:11:34;;;;;;;2.40;2.20;;;;;;;22.20;45.53;97687.19;5015580;28;20505;-69
2023/07/14 01:14:02;;;;;;;5.00;2.70;;;;;;;22.20;45.42;97684.53;5012836;28;20428;-69
2023/07/14 01:16:28;;;;;;;4.50;3.07;;;;;;;22.18;45.57;97689.25;5014596;28;20822;-69
2023/07/14 01:18:54;;;;;;;3.40;2.33;;;;;;;22.16;45.54;97691.34;5024153;28;20433;-69
2023/07/14 01:21:23;;;;;;;3.10;1.97;;;;;;;22.21;45.48;97690.69;5005842;28;20432;-69
2023/07/14 01:24:03;;;;;;;3.90;2.13;;;;;;;22.19;45.33;97688.22;5007279;28;20943;-70
2023/07/14 01:26:52;;;;;;;4.53;2.00;;;;;;;22.15;45.45;97695.06;5008927;28;20419;-70
2023/07/14 01:29:18;;;;;;;4.37;2.90;;;;;;;22.12;45.74;97690.13;5010276;28;20638;-69
2023/07/14 01:31:44;;;;;;;3.00;2.20;;;;;;;22.11;45.60;97682.34;5012413;28;20449;-68
2023/07/14 01:34:09;;;;;;;4.20;2.53;;;;;;;22.09;45.60;97682.56;5012231;28;21070;-69
2023/07/14 01:36:35;;;;;;;3.10;2.40;;;;;;;22.09;45.71;97686.06;5007958;28;20173;-69
2023/07/14 01:39:01;;;;;;;6.10;2.47;;;;;;;22.09;45.58;97679.88;5009533;28;20211;-70
2023/07/14 01:41:26;;;;;;;4.10;2.20;;;;;;;22.05;45.51;97674.16;5010755;28;20176;-69
2023/07/14 01:43:53;;;;;;;8.90;2.20;;;;;;;22.03;45.27;97670.88;5011807;28;20218;-69
2023/07/14 01:46:20;;;;;;;2.63;2.37;;;;;;;22.03;45.58;97670.09;5033321;28;20188;-71
2023/07/14 01:49:03;;;;;;;3.40;2.80;;;;;;;21.96;46.20;97669.28;5016910;28;20813;-69
2023/07/14 01:51:31;;;;;;;5.73;2.60;;;;;;;21.96;46.24;97670.13;5009259;28;20476;-68
2023/07/14 01:54:13;;;;;;;3.43;2.17;;;;;;;21.89;46.24;97670.16;5009967;28;20454;-68
2023/07/14 01:56:39;;;;;;;3.80;2.10;;;;;;;21.85;46.25;97665.47;5015093;28;20826;-68
2023/07/14 01:59:08;;;;;;;3.40;2.50;;;;;;;21.83;46.15;97663.00;5009159;28;20416;-68
2023/07/14 02:01:35;;;;;;;3.93;2.70;;;;;;;21.87;46.39;97669.56;5012584;28;20282;-68
2023/07/14 02:04:09;;;;;;;7.20;2.40;;;;;;;21.80;45.87;97666.09;5010895;28;20463;-68
2023/07/14 02:06:34;;;;;;;3.43;2.27;;;;;;;21.79;46.17;97659.13;5019547;28;20431;-68
2023/07/14 02:09:01;;;;;;;4.43;2.53;;;;;;;21.78;46.09;97662.84;5012514;28;20971;-68
2023/07/14 02:11:27;;;;;;;6.00;2.10;;;;;;;21.76;46.39;97667.56;5018787;28;20597;-68
2023/07/14 02:13:54;;;;;;;2.23;2.03;;;;;;;21.70;46.55;97660.41;5007411;28;20427;-68
2023/07/14 02:16:21;;;;;;;3.17;2.20;;;;;;;21.69;46.29;97654.25;5010748;28;20416;-68
2023/07/14 02:18:47;;;;;;;9.23;2.10;;;;;;;21.65;46.64;97654.91;5006027;28;20955;-68
2023/07/14 02:21:14;;;;;;;3.57;2.40;;;;;;;21.57;46.58;97653.25;5006485;28;20498;-69
2023/07/14 02:23:41;;;;;;;7.07;2.50;;;;;;;21.58;46.70;97655.72;5007774;28;20435;-68
2023/07/14 02:26:30;;;;;;;4.70;2.80;;;;;;;21.55;47.02;97658.78;5006845;28;20440;-68
2023/07/14 02:28:57;;;;;;;2.50;2.20;;;;;;;21.54;46.88;97651.84;5014147;28;20420;-68
2023/07/14 02:31:32;;;;;;;4.53;2.20;;;;;;;21.48;46.96;97663.34;5013058;28;20420;-68
2023/07/14 02:33:57;;;;;;;2.80;2.33;;;;;;;21.40;47.19;97648.41;5011622;28;20433;-69
2023/07/14 02:36:35;;;;;;;3.80;2.30;;;;;;;21.33;47.12;97653.75;5017803;28;20426;-69
2023/07/14 02:39:01;;;;;;;9.13;2.67;;;;;;;21.30;46.89;97650.69;5010503;28;20184;-69
2023/07/14 02:41:35;;;;;;;4.00;2.30;;;;;;;21.29;47.08;97652.56;5014363;28;20433;-69
2023/07/14 02:44:03;;;;;;;3.20;2.27;;;;;;;21.22;47.09;97646.41;5016826;28;20414;-69
2023/07/14 02:46:43;;;;;;;4.93;2.37;;;;;;;21.18;46.99;97653.19;5014161;28;20971;-69
2023/07/14 02:49:09;;;;;;;6.20;2.40;;;;;;;21.18;47.32;97647.84;5015889;28;20466;-69
2023/07/14 02:51:36;;;;;;;6.63;2.77;;;;;;;21.18;47.77;97651.34;5008706;28;20446;-69
2023/07/14 02:54:03;;;;;;;7.03;2.70;;;;;;;21.20;47.26;97645.81;5012851;28;20275;-69
2023/07/14 02:56:28;;;;;;;8.93;2.60;;;;;;;21.12;47.57;97643.38;5002860;28;20415;-69
2023/07/14 02:58:54;;;;;;;4.00;2.40;;;;;;;21.14;48.05;97636.81;5008094;28;20518;-69
2023/07/14 03:01:20;;;;;;;7.50;2.90;;;;;;;21.17;47.89;97636.38;5013024;28;20250;-70
2023/07/14 03:03:46;;;;;;;2.40;2.20;;;;;;;21.23;47.83;97642.72;5022688;28;20660;-69
2023/07/14 03:06:13;;;;;;;3.27;2.17;;;;;;;21.28;47.53;97645.59;5008228;28;20621;-69
2023/07/14 03:08:39;;;;;;;3.77;2.40;;;;;;;21.15;47.75;97643.78;5007492;28;20897;-69
2023/07/14 03:11:04;;;;;;;4.70;2.30;;;;;;;21.14;47.97;97644.00;5009291;28;20451;-69
2023/07/14 03:13:30;;;;;;;3.47;2.13;;;;;;;21.11;47.39;97636.41;5001100;28;20694;-68
2023/07/14 03:15:57;;;;;;;3.60;2.13;;;;;;;21.03;47.63;97629.47;5002548;28;20180;-69
2023/07/14 03:18:22;;;;;;;4.53;2.57;;;;;;;21.00;47.71;97633.38;5011683;28;20203;-68
2023/07/14 03:20:55;;;;;;;3.60;2.70;;;;;;;21.01;47.88;97629.69;5015131;28;20545;-68
2023/07/14 03:23:20;;;;;;;3.70;2.40;;;;;;;21.07;48.10;97629.84;4994972;28;20188;-69
2023/07/14 03:25:47;;;;;;;4.43;2.10;;;;;;;21.01;47.93;97624.34;5010096;28;20441;-69
2023/07/14 03:28:12;;;;;;;4.40;2.27;;;;;;;21.00;47.92;97614.72;5011909;28;20780;-69
2023/07/14 03:30:41;;;;;;;3.30;2.47;;;;;;;20.99;47.71;97615.75;4999085;28;20439;-68
2023/07/14 03:33:07;;;;;;;3.63;2.37;;;;;;;20.96;47.80;97613.50;5013743;28;20266;-68
2023/07/14 03:35:32;;;;;;;9.93;2.77;;;;;;;20.95;47.81;97611.06;5016042;28;20535;-68
2023/07/14 03:37:58;;;;;;;7.13;2.57;;;;;;;20.92;48.04;97620.25;5007398;28;20378;-68
2023/07/14 03:40:23;;;;;;;6.63;2.03;;;;;;;20.93;47.99;97607.78;5021999;28;20207;-69
2023/07/14 03:42:49;;;;;;;4.77;2.30;;;;;;;20.96;48.21;97618.00;5016149;28;20186;-71
2023/07/14 03:45:14;;;;;;;3.80;1.97;;;;;;;20.95;47.84;97616.38;5020431;28;20219;-70
2023/07/14 03:47:40;;;;;;;8.83;2.23;;;;;;;20.89;47.95;97601.22;5025643;28;20188;-69
2023/07/14 03:50:07;;;;;;;6.43;2.47;;;;;;;20.91;48.12;97607.16;5019142;28;20215;-69
2023/07/14 03:52:32;;;;;;;3.73;2.20;;;;;;;20.84;48.19;97602.69;5018885;28;20211;-69
2023/07/14 03:54:58;;;;;;;3.63;2.27;;;;;;;20.86;48.43;97607.78;5009175;28;21109;-68
2023/07/14 03:57:23;;;;;;;2.50;2.30;;;;;;;20.88;48.34;97597.75;5016333;28;20172;-68
2023/07/14 03:59:49;;;;;;;3.80;3.00;;;;;;;20.87;48.35;97599.56;4991132;28;20205;-69
2023/07/14 04:02:14;;;;;;;5.30;2.03;;;;;;;20.88;48.33;97600.41;5008460;28;20275;-68
2023/07/14 04:04:40;;;;;;;5.97;2.80;;;;;;;20.87;48.28;97593.44;5004606;28;20715;-69
2023/07/14 04:07:07;;;;;;;7.70;2.27;;;;;;;20.84;48.08;97596.53;5011060;28;20272;-68
2023/07/14 04:09:32;;;;;;;6.07;2.50;;;;;;;20.86;48.17;97597.13;5013246;28;20651;-69
2023/07/14 04:11:57;;;;;;;3.73;2.40;;;;;;;20.88;48.41;97605.75;5009588;28;20519;-69
2023/07/14 04:14:23;;;;;;;2.50;2.30;;;;;;;20.90;48.43;97598.38;5019624;28;20258;-68
2023/07/14 04:16:48;;;;;;;6.00;2.30;;;;;;;20.92;48.32;97606.94;5013682;28;20219;-68
2023/07/14 04:19:14;;;;;;;6.20;2.60;;;;;;;20.97;48.45;97609.00;5010393;28;20267;-68
2023/07/14 04:21:39;;;;;;;5.23;2.50;;;;;;;20.99;48.27;97604.25;5018836;28;20180;-68
2023/07/14 04:24:05;;;;;;;2.40;2.07;;;;;;;21.02;48.58;97612.66;5015521;28;20176;-68
2023/07/14 04:26:31;;;;;;;4.23;2.50;;;;;;;20.95;48.18;97606.53;5011791;28;20203;-69
2023/07/14 04:28:56;;;;;;;7.87;2.80;;;;;;;20.94;48.34;97618.22;5018909;28;20191;-68
2023/07/14 04:31:22;;;;;;;7.00;2.33;;;;;;;21.00;48.40;97609.41;5017407;28;20597;-68
2023/07/14 04:33:49;;;;;;;6.87;3.00;;;;;;;20.99;47.64;97612.25;5009469;28;20181;-68
2023/07/14 04:36:15;;;;;;;3.10;2.23;;;;;;;21.03;47.86;97608.16;5010373;28;20180;-68
2023/07/14 04:38:42;;;;;;;6.37;2.43;;;;;;;21.00;48.22;97605.91;5010200;28;20433;-68
2023/07/14 04:41:07;;;;;;;6.60;2.67;;;;;;;21.08;48.89;97605.69;5017957;28;20212;-68
2023/07/14 04:43:33;;;;;;;5.57;2.87;;;;;;;21.15;48.81;97605.66;5014556;28;21207;-69
2023/07/14 04:45:59;;;;;;;3.93;2.30;;;;;;;21.21;48.95;97599.47;5011294;28;20196;-69
2023/07/14 04:48:24;;;;;;;7.40;3.00;;;;;;;21.22;48.67;97601.13;5009772;28;20419;-69
2023/07/14 04:50:51;;;;;;;6.87;3.53;;;;;;;21.25;49.22;97608.69;5012442;28;20207;-68
2023/07/14 04:53:17;;;;;;;5.20;2.90;;;;;;;21.28;48.93;97602.94;5016574;28;20725;-69
2023/07/14 04:55:45;;;;;;;7.43;2.73;;;;;;;21.33;48.30;97599.63;5012096;28;20558;-69
2023/07/14 04:58:11;;;;;;;4.87;2.67;;;;;;;21.30;49.06;97590.19;5011716;28;20424;-68
2023/07/14 05:00:38;;;;;;;6.60;2.30;;;;;;;21.35;49.43;97599.41;5009880;28;20463;-68
2023/07/14 05:03:04;;;;;;;5.33;2.30;;;;;;;21.35;49.72;97599.41;5017198;28;21024;-68
2023/07/14 05:05:30;;;;;;;6.40;2.80;;;;;;;21.41;49.47;97591.38;5009419;28;20427;-68
2023/07/14 05:07:55;;;;;;;7.00;2.80;;;;;;;21.49;48.57;97598.34;5009844;28;20971;-68
2023/07/14 05:10:22;;;;;;;4.37;2.70;;;;;;;21.55;48.84;97588.66;5008490;28;20273;-68
2023/07/14 05:12:55;;;;;;;5.87;3.03;;;;;;;21.65;48.96;97590.91;5002168;28;20210;-69
2023/07/14 05:15:21;;;;;;;4.70;2.23;;;;;;;21.74;48.76;97592.28;5004744;28;20428;-69
2023/07/14 05:17:47;;;;;;;2.90;2.37;;;;;;;21.80;48.98;97586.06;5008223;28;20427;-69
2023/07/14 05:20:14;;;;;;;3.67;2.60;;;;;;;21.81;49.00;97586.91;5008957;28;20451;-69
2023/07/14 05:22:49;;;;;;;5.70;2.40;;;;;;;21.83;48.73;97587.50;5012413;28;20183;-69
2023/07/14 05:25:15;;;;;;;4.40;2.33;;;;;;;21.83;48.84;97590.97;5007546;28;20429;-70
2023/07/14 05:27:43;;;;;;;5.60;2.70;;;;;;;21.87;48.47;97578.84;5009899;28;20546;-69
2023/07/14 05:30:10;;;;;;;4.80;2.67;;;;;;;21.91;48.12;97582.72;5009621;28;20522;-68
2023/07/14 05:32:36;;;;;;;4.17;2.70;;;;;;;21.92;47.50;97588.88;5016326;28;20788;-69
2023/07/14 05:35:01;;;;;;;5.03;2.60;;;;;;;21.96;47.16;97590.09;5009677;28;20427;-69
2023/07/14 05:37:27;;;;;;;4.63;2.53;;;;;;;22.04;47.07;97594.34;5008109;28;20169;-69
2023/07/14 05:39:52;;;;;;;4.30;2.70;;;;;;;22.16;47.07;97586.44;5009332;28;20348;-70
2023/07/14 05:42:18;;;;;;;3.73;2.80;;;;;;;22.29;47.04;97598.88;5010802;28;20176;-69
2023/07/14 05:44:43;;;;;;;5.03;2.57;;;;;;;22.32;46.11;97593.91;5013884;28;20184;-68
2023/07/14 05:47:09;;;;;;;4.13;2.17;;;;;;;22.38;46.21;97600.22;5009843;28;20267;-69
2023/07/14 05:49:35;;;;;;;4.13;2.60;;;;;;;22.43;46.28;97595.03;5013326;28;20230;-69
2023/07/14 05:52:00;;;;;;;3.43;2.13;;;;;;;22.56;46.59;97586.13;5009388;28;20343;-69
2023/07/14 05:54:26;;;;;;;3.93;2.67;;;;;;;22.68;46.49;97584.34;5009716;28;20569;-69
2023/07/14 05:56:53;;;;;;;6.30;2.60;;;;;;;22.62;45.55;97584.41;5013239;28;20241;-69
2023/07/14 05:59:19;;;;;;;5.17;2.50;;;;;;;22.74;45.54;97581.84;5015020;28;20184;-69
2023/07/14 06:01:48;;;;;;;4.07;2.70;;;;;;;22.86;45.64;97588.88;5017897;28;20456;-69
2023/07/14 06:04:15;;;;;;;6.90;2.40;;;;;;;22.98;45.63;97585.47;5014827;28;20197;-68
2023/07/14 06:06:41;;;;;;;13.50;3.00;;;;;;;22.99;45.32;97577.25;5025957;28;20422;-70
2023/07/14 06:09:09;;;;;;;6.57;2.93;;;;;;;23.01;45.24;97574.34;5025908;28;20442;-70
2023/07/14 06:11:35;;;;;;;11.77;3.40;;;;;;;23.03;45.17;97580.28;5019262;28;20423;-70
2023/07/14 06:14:00;;;;;;;5.27;2.70;;;;;;;23.05;44.98;97575.53;5021183;28;20427;-70
2023/07/14 06:16:26;;;;;;;4.33;2.63;;;;;;;23.05;44.42;97574.69;5029782;28;20245;-70
2023/07/14 06:18:52;;;;;;;6.23;2.30;;;;;;;23.05;44.58;97572.88;5019329;28;20703;-70
2023/07/14 06:21:18;;;;;;;4.60;2.67;;;;;;;22.99;43.40;97565.72;5020090;28;20462;-69
2023/07/14 06:23:44;;;;;;;16.33;2.80;;;;;;;23.07;43.03;97562.75;5026997;28;20427;-70
2023/07/14 06:26:09;;;;;;;4.20;2.30;;;;;;;23.25;43.08;97569.16;5023839;28;20206;-70
2023/07/14 06:28:35;;;;;;;6.53;2.40;;;;;;;23.20;42.34;97560.97;5017545;28;20192;-70
2023/07/14 06:31:05;;;;;;;6.27;2.67;;;;;;;23.33;42.10;97555.44;5039096;28;20204;-70
2023/07/14 06:33:32;;;;;;;3.37;2.10;;;;;;;23.46;41.57;97560.63;5017331;28;20227;-70
2023/07/14 06:35:57;;;;;;;5.20;2.67;;;;;;;23.67;41.51;97561.19;5018760;28;20475;-69
2023/07/14 06:38:28;;;;;;;6.30;2.67;;;;;;;23.91;41.44;97545.19;5012799;28;20420;-69
2023/07/14 06:40:57;;;;;;;11.03;2.50;;;;;;;24.14;41.46;97549.75;5012878;28;20208;-70
2023/07/14 06:43:23;;;;;;;6.97;2.70;;;;;;;24.37;41.07;97553.50;5022903;28;20434;-70
2023/07/14 06:45:48;;;;;;;4.70;2.40;;;;;;;24.57;40.74;97547.78;5021091;28;20457;-70
2023/07/14 06:48:14;;;;;;;7.33;2.40;;;;;;;24.79;40.79;97539.16;5007467;28;20184;-69
2023/07/14 06:50:39;;;;;;;3.50;2.10;;;;;;;24.85;39.75;97540.88;5009252;28;20196;-70
2023/07/14 06:53:05;;;;;;;4.67;2.30;;;;;;;24.98;39.45;97543.31;5015306;28;20184;-70
2023/07/14 06:55:30;;;;;;;4.43;2.30;;;;;;;25.13;38.73;97541.97;5009566;28;20181;-69
2023/07/14 06:57:56;;;;;;;4.60;2.00;;;;;;;25.29;38.96;97541.22;5017293;28;20219;-70
2023/07/14 07:00:22;;;;;;;4.43;2.20;;;;;;;25.53;38.52;97549.19;5016596;28;20212;-69
2023/07/14 07:02:47;;;;;;;7.10;2.50;;;;;;;25.71;37.58;97541.97;5009471;28;20612;-69
2023/07/14 07:05:13;;;;;;;6.30;2.40;;;;;;;25.87;37.66;97525.09;5011727;28;20704;-69
2023/07/14 07:07:38;;;;;;;7.53;2.80;;;;;;;26.02;37.29;97526.38;5007754;28;20188;-68
2023/07/14 07:10:05;;;;;;;4.40;2.17;;;;;;;26.17;36.47;97523.16;5008974;28;20232;-70
2023/07/14 07:12:30;;;;;;;10.27;2.03;;;;;;;26.30;36.15;97519.31;5008254;28;20192;-70
2023/07/14 07:14:56;;;;;;;4.43;2.13;;;;;;;26.35;35.82;97517.53;4999659;28;20427;-69
2023/07/14 07:17:21;;;;;;;9.10;2.30;;;;;;;26.41;35.17;97515.72;5004511;28;20216;-70
2023/07/14 07:19:47;;;;;;;7.80;1.80;;;;;;;26.44;35.30;97525.16;5009770;28;20215;-70
2023/07/14 07:22:12;;;;;;;3.97;2.83;;;;;;;26.53;34.82;97524.47;5007664;28;20180;-70
2023/07/14 07:24:39;;;;;;;5.23;2.10;;;;;;;26.60;34.72;97518.94;5016033;28;20203;-70
2023/07/14 07:27:05;;;;;;;5.70;2.13;;;;;;;26.69;33.79;97516.63;5008585;28;20203;-71
2023/07/14 07:29:30;;;;;;;4.50;3.10;;;;;;;26.80;33.85;97515.72;5007183;28;20444;-71
2023/07/14 07:31:56;;;;;;;6.80;2.63;;;;;;;26.96;34.15;97510.53;5006923;28;20454;-69
2023/07/14 07:34:22;;;;;;;7.50;1.80;;;;;;;27.06;33.19;97507.94;5004115;28;20211;-69
2023/07/14 07:36:47;;;;;;;4.00;1.97;;;;;;;26.98;33.02;97505.69;5007681;28;20185;-70
2023/07/14 07:39:13;;;;;;;3.03;2.00;;;;;;;27.07;33.57;97506.88;5011808;28;20184;-70
2023/07/14 07:41:39;;;;;;;3.57;1.73;;;;;;;27.07;33.25;97504.19;5013786;28;20275;-70
2023/07/14 07:44:08;;;;;;;5.47;2.03;;;;;;;27.24;33.35;97506.78;5011960;28;20192;-69
2023/07/14 07:46:34;;;;;;;3.10;1.77;;;;;;;27.37;32.18;97504.78;5011617;28;20426;-69
2023/07/14 07:49:00;;;;;;;2.20;1.50;;;;;;;27.45;32.17;97501.63;5012152;28;20419;-70
2023/07/14 07:51:25;;;;;;;4.00;1.70;;;;;;;27.64;32.21;97504.78;5014577;28;20447;-70
2023/07/14 07:53:51;;;;;;;4.40;1.90;;;;;;;27.74;30.70;97498.66;5020154;28;20191;-69
2023/07/14 07:56:17;;;;;;;4.47;1.93;;;;;;;27.84;30.78;97497.94;5011786;28;20215;-69
2023/07/14 07:58:43;;;;;;;5.10;1.93;;;;;;;27.68;30.17;97495.13;5011175;28;20185;-70
2023/07/14 08:01:19;;;;;;;6.30;1.40;;;;;;;27.47;30.60;97491.44;5011218;28;20558;-68
2023/07/14 08:03:44;;;;;;;7.70;4.00;;;;;;;27.67;30.88;97481.91;5028749;28;20453;-69
2023/07/14 08:06:09;;;;;;;6.67;2.40;;;;;;;27.85;30.92;97484.22;5014439;28;21057;-68
2023/07/14 08:08:35;;;;;;;3.53;1.47;;;;;;;27.97;30.52;97483.22;5017051;28;20176;-69
2023/07/14 08:11:01;;;;;;;3.93;1.57;;;;;;;28.17;29.68;97485.28;5014867;28;20657;-69
2023/07/14 08:13:28;;;;;;;2.97;1.40;;;;;;;28.30;30.02;97483.97;5009177;28;20180;-69
2023/07/14 08:15:55;;;;;;;2.33;1.60;;;;;;;28.38;29.56;97474.59;5012601;28;20513;-69
2023/07/14 08:18:21;;;;;;;2.20;1.60;;;;;;;28.51;29.82;97466.88;5011090;28;20430;-69
2023/07/14 08:20:47;;;;;;;9.53;1.60;;;;;;;28.59;29.58;97462.88;5025449;28;20467;-70
2023/07/14 08:23:15;;;;;;;8.60;1.67;;;;;;;28.66;29.09;97465.31;5010072;28;20428;-68
2023/07/14 08:25:40;;;;;;;7.90;1.80;;;;;;;28.48;29.73;97475.47;5011287;28;20447;-69
2023/07/14 08:28:06;;;;;;;3.53;1.50;;;;;;;28.76;29.34;97469.94;5009829;28;20427;-70
2023/07/14 08:30:32;;;;;;;2.73;1.63;;;;;;;28.99;29.33;97467.84;5013041;28;20204;-70
2023/07/14 08:32:57;;;;;;;3.30;1.90;;;;;;;29.07;28.92;97475.44;5009770;28;20176;-69
2023/07/14 08:35:23;;;;;;;4.60;2.70;;;;;;;29.10;28.34;97473.03;5010967;28;20176;-69
2023/07/14 08:37:48;;;;;;;2.60;2.17;;;;;;;29.07;28.68;97475.44;5010404;28;20667;-70
2023/07/14 08:40:24;;;;;;;3.50;2.40;;;;;;;29.07;28.47;97464.66;5012898;28;20669;-70
2023/07/14 08:43:19;;;;;;;5.20;1.87;;;;;;;29.08;28.45;97456.28;5011267;28;20176;-69
2023/07/14 08:45:53;;;;;;;2.80;2.43;;;;;;;29.23;29.31;97460.91;5008860;28;20426;-69
2023/07/14 08:48:31;;;;;;;4.57;2.17;;;;;;;29.28;29.29;97460.91;5008103;28;20854;-69
2023/07/14 08:51:03;;;;;;;2.70;2.07;;;;;;;29.40;29.05;97454.47;5007638;28;20514;-70
2023/07/14 08:53:30;;;;;;;6.00;1.83;;;;;;;29.57;28.50;97446.09;5008795;28;20482;-69
2023/07/14 08:56:02;;;;;;;4.77;1.80;;;;;;;29.56;28.68;97448.00;5009324;28;20428;-69
2023/07/14 08:58:30;;;;;;;3.80;3.10;;;;;;;29.67;29.23;97456.91;5009810;28;20428;-68
2023/07/14 09:01:22;;;;;;;5.07;1.93;;;;;;;29.76;28.36;97454.47;5008657;28;21029;-69
2023/07/14 09:03:52;;;;;;;3.93;1.87;;;;;;;29.71;28.50;97452.59;5024745;28;20424;-69
2023/07/14 09:06:17;;;;;;;5.47;1.57;;;;;;;29.57;28.49;97446.09;5009087;28;20448;-69
2023/07/14 09:08:43;;;;;;;2.43;1.60;;;;;;;29.28;28.09;97447.41;5008155;28;20466;-69
2023/07/14 09:11:25;;;;;;;2.07;1.40;;;;;;;29.31;28.78;97447.97;5013547;28;20218;-68
2023/07/14 09:13:56;;;;;;;4.03;1.60;;;;;;;29.36;29.43;97448.00;5008968;28;20423;-69
2023/07/14 09:16:24;;;;;;;3.70;1.80;;;;;;;29.21;28.47;97449.56;5010058;28;20452;-68
2023/07/14 09:19:00;;;;;;;3.43;1.77;;;;;;;29.15;29.13;97450.63;5007640;28;21254;-70
2023/07/14 09:21:39;;;;;;;5.90;2.00;;;;;;;29.19;29.50;97445.50;5008345;28;20470;-69
2023/07/14 09:24:11;;;;;;;3.27;2.00;;;;;;;29.25;29.17;97456.03;5003224;28;20435;-68
2023/07/14 09:26:40;;;;;;;3.27;1.57;;;;;;;29.22;29.38;97443.09;5008929;28;20513;-70
2023/07/14 09:29:13;;;;;;;3.33;1.90;;;;;;;29.34;29.59;97439.38;5008853;28;20423;-72
2023/07/14 09:32:01;;;;;;;7.00;2.30;;;;;;;29.18;29.04;97438.50;5008501;28;20800;-69
2023/07/14 09:34:33;;;;;;;4.27;2.00;;;;;;;29.31;29.23;97437.16;5009876;28;20455;-69
2023/07/14 09:37:00;;;;;;;9.17;2.17;;;;;;;29.40;29.52;97432.88;5008846;28;20461;-69
2023/07/14 09:39:38;;;;;;;6.30;3.23;;;;;;;29.45;28.78;97430.19;5008241;28;20424;-69
2023/07/14 09:42:09;;;;;;;7.60;3.03;;;;;;;29.47;29.24;97428.03;5012307;28;20423;-69
2023/07/14 09:44:34;;;;;;;2.70;1.80;;;;;;;29.43;28.95;97430.44;5007787;28;20451;-67
2023/07/14 09:47:02;;;;;;;7.83;2.77;;;;;;;29.45;29.08;97424.78;5009326;28;20462;-69
2023/07/14 09:49:39;;;;;;;9.83;8.27;;;;;;;29.50;29.14;97424.78;5009041;28;20192;-69
2023/07/14 09:52:20;;;;;;;8.73;4.97;;;;;;;29.47;29.08;97419.94;5009555;28;20416;-69
2023/07/14 09:54:59;;;;;;;2.93;2.10;;;;;;;29.45;29.02;97426.66;4994305;28;20956;-69
2023/07/14 09:57:32;;;;;;;7.00;2.40;;;;;;;29.43;28.60;97414.25;5009167;28;20485;-69
2023/07/14 10:00:00;;;;;;;11.90;1.97;;;;;;;29.37;29.55;97419.91;5008424;28;20463;-69
2023/07/14 10:02:31;;;;;;;2.23;1.57;;;;;;;29.34;29.39;97423.97;5008767;28;20936;-69
2023/07/14 10:05:03;;;;;;;3.00;1.67;;;;;;;29.34;28.78;97417.78;5008229;28;20494;-69
2023/07/14 10:07:35;;;;;;;3.40;1.50;;;;;;;29.31;28.65;97410.19;5009310;28;20443;-69
2023/07/14 10:10:07;;;;;;;6.50;1.77;;;;;;;29.17;28.72;97416.09;5008860;28;20441;-69
2023/07/14 10:12:44;;;;;;;3.10;1.83;;;;;;;29.17;29.78;97409.91;5010896;28;20454;-70
2023/07/14 10:15:35;;;;;;;4.60;2.00;;;;;;;29.18;29.18;97406.13;5008382;28;21160;-69
2023/07/14 10:18:05;;;;;;;3.80;1.70;;;;;;;29.20;29.10;97404.78;5008925;28;20514;-69
2023/07/14 10:20:32;;;;;;;10.47;2.20;;;;;;;29.30;28.77;97403.97;5008476;28;20487;-69
2023/07/14 10:22:58;;;;;;;10.03;2.10;;;;;;;29.35;28.56;97406.69;5006730;28;20419;-69
2023/07/14 10:25:26;;;;;;;2.63;1.70;;;;;;;29.37;29.00;97403.72;5009250;28;21159;-69
2023/07/14 10:28:10;;;;;;;4.10;1.50;;;;;;;29.27;28.51;97399.91;5005459;28;20439;-69
2023/07/14 10:30:39;;;;;;;4.60;1.83;;;;;;;29.35;29.15;97397.81;5007647;28;20486;-69
2023/07/14 10:33:08;;;;;;;4.50;1.87;;;;;;;29.36;28.45;97388.63;5000852;28;20427;-69
2023/07/14 10:35:35;;;;;;;3.00;1.80;;;;;;;29.36;28.29;97396.75;5007376;28;20434;-69
2023/07/14 10:38:05;;;;;;;3.50;2.10;;;;;;;29.37;27.39;97393.75;5000543;28;20428;-70
2023/07/14 10:40:35;;;;;;;6.43;3.10;;;;;;;29.39;27.80;97385.38;5007421;28;21057;-69
2023/07/14 10:43:03;;;;;;;2.17;1.97;;;;;;;29.51;27.85;97377.81;5011971;28;20929;-69
2023/07/14 10:45:29;;;;;;;9.80;5.50;;;;;;;29.66;27.94;97378.88;5006678;28;20419;-69
2023/07/14 10:48:14;;;;;;;5.50;2.37;;;;;;;29.71;27.42;97371.56;5006308;28;20427;-69
2023/07/14 10:50:43;;;;;;;7.97;1.70;;;;;;;29.82;27.59;97380.47;5007547;28;20208;-69
2023/07/14 10:53:35;;;;;;;10.10;2.27;;;;;;;29.91;27.67;97375.34;5006233;28;20427;-70
2023/07/14 10:56:04;;;;;;;5.07;1.63;;;;;;;29.81;26.33;97368.06;5006501;28;20518;-69
2023/07/14 10:58:44;;;;;;;5.33;1.50;;;;;;;29.71;26.76;97374.28;5008637;28;20522;-68
2023/07/14 11:01:28;;;;;;;2.40;1.67;;;;;;;29.74;26.85;97370.22;5006221;28;20467;-69
2023/07/14 11:03:59;;;;;;;2.10;1.50;;;;;;;29.78;26.86;97375.91;5006024;28;20432;-69
2023/07/14 11:06:28;;;;;;;4.13;1.70;;;;;;;29.72;27.15;97361.59;5023102;28;20482;-69
2023/07/14 11:08:56;;;;;;;3.83;1.60;;;;;;;29.64;27.64;97364.84;5007983;28;20526;-69
2023/07/14 11:11:39;;;;;;;5.53;1.90;;;;;;;29.67;28.30;97367.81;5010849;28;20923;-69
2023/07/14 11:14:16;;;;;;;3.40;1.70;;;;;;;29.73;27.45;97364.00;5006495;28;20435;-69
2023/07/14 11:17:06;;;;;;;6.30;2.20;;;;;;;29.72;27.28;97351.59;5003987;28;20923;-69
2023/07/14 11:19:32;;;;;;;4.50;1.90;;;;;;;29.71;27.41;97349.97;5000196;28;20427;-70
2023/07/14 11:22:09;;;;;;;4.90;3.00;;;;;;;29.81;27.82;97349.16;5000689;28;20786;-69
2023/07/14 11:24:39;;;;;;;9.50;2.00;;;;;;;29.82;27.87;97342.66;5008853;28;20184;-69
2023/07/14 11:27:31;;;;;;;2.20;1.57;;;;;;;29.93;27.44;97339.94;5010080;28;20938;-71
2023/07/14 11:29:59;;;;;;;8.77;1.70;;;;;;;30.03;27.25;97339.94;5015206;28;20468;-70
2023/07/14 11:32:38;;;;;;;3.70;1.63;;;;;;;30.13;27.15;97342.59;4999457;28;20837;-70
2023/07/14 11:35:20;;;;;;;2.30;1.50;;;;;;;30.20;26.43;97331.47;5026980;28;20431;-70
2023/07/14 11:37:51;;;;;;;4.03;1.67;;;;;;;30.39;26.46;97337.06;5013897;28;20452;-69
2023/07/14 11:40:22;;;;;;;3.00;1.90;;;;;;;30.52;25.92;97330.25;5015777;28;20456;-70
2023/07/14 11:42:52;;;;;;;3.13;1.47;;;;;;;30.35;25.21;97341.44;5002124;28;20476;-69